createdAt,value
2019-01-30T00:01:56.644Z,1.60
2019-01-30T00:04:24.831Z,1.60
2019-01-30T00:06:53.046Z,1.62
2019-01-30T00:09:21.302Z,1.61
2019-01-30T00:11:49.573Z,1.62
2019-01-30T00:14:17.762Z,1.62
2019-01-30T00:16:46.307Z,1.64
2019-01-30T00:19:14.495Z,1.65
2019-01-30T00:21:42.689Z,1.66
2019-01-30T00:24:10.954Z,1.65
2019-01-30T00:26:39.153Z,1.66
2019-01-30T00:29:07.335Z,1.65
2019-01-30T00:31:35.524Z,1.60
2019-01-30T00:34:03.719Z,1.58
2019-01-30T00:36:31.902Z,1.61
2019-01-30T00:39:00.099Z,1.62
2019-01-30T00:41:28.285Z,1.62
2019-01-30T00:43:56.489Z,1.61
2019-01-30T00:46:24.668Z,1.63
2019-01-30T00:48:52.874Z,1.61
2019-01-30T00:51:21.065Z,1.58
2019-01-30T00:53:49.265Z,1.57
2019-01-30T00:56:17.453Z,1.57
2019-01-30T00:58:45.647Z,1.58
2019-01-30T01:01:13.839Z,1.60
2019-01-30T01:03:42.037Z,1.58
2019-01-30T01:06:10.224Z,1.53
2019-01-30T01:08:38.423Z,1.51
2019-01-30T01:14:20.317Z,1.43
2019-01-30T01:16:48.509Z,1.42
2019-01-30T01:19:16.723Z,1.41
2019-01-30T01:21:44.901Z,1.40
2019-01-30T01:24:13.098Z,1.37
2019-01-30T01:26:41.282Z,1.35
2019-01-30T01:29:09.483Z,1.32
2019-01-30T01:31:37.663Z,1.32
2019-01-30T01:34:05.863Z,1.31
2019-01-30T01:36:34.043Z,1.29
2019-01-30T01:39:02.238Z,1.29
2019-01-30T01:41:30.426Z,1.30
2019-01-30T01:43:58.633Z,1.29
2019-01-30T01:46:26.816Z,1.26
2019-01-30T01:48:55.013Z,1.23
2019-01-30T01:51:23.205Z,1.24
2019-01-30T01:53:51.391Z,1.24
2019-01-30T01:56:19.578Z,1.25
2019-01-30T01:58:47.776Z,1.28
2019-01-30T02:01:15.961Z,1.29
2019-01-30T02:03:44.154Z,1.27
2019-01-30T02:06:12.346Z,1.29
2019-01-30T02:08:40.535Z,1.31
2019-01-30T02:11:08.725Z,1.32
2019-01-30T02:13:36.921Z,1.34
2019-01-30T02:16:05.100Z,1.33
2019-01-30T02:18:33.294Z,1.32
2019-01-30T02:21:01.475Z,1.33
2019-01-30T02:23:29.680Z,1.30
2019-01-30T02:25:57.870Z,1.28
2019-01-30T02:28:26.058Z,1.27
2019-01-30T02:30:54.237Z,1.28
2019-01-30T02:33:22.427Z,1.29
2019-01-30T02:35:50.633Z,1.29
2019-01-30T02:38:18.816Z,1.25
2019-01-30T02:40:47.002Z,1.24
2019-01-30T02:43:15.195Z,1.24
2019-01-30T02:45:43.387Z,1.25
2019-01-30T02:48:11.566Z,1.25
2019-01-30T02:50:39.763Z,1.23
2019-01-30T02:53:07.948Z,1.22
2019-01-30T02:55:36.137Z,1.22
2019-01-30T02:58:04.314Z,1.21
2019-01-30T03:01:12.633Z,1.20
2019-01-30T03:03:40.945Z,1.21
2019-01-30T03:06:09.145Z,1.18
2019-01-30T03:08:37.331Z,1.16
2019-01-30T03:11:05.536Z,1.16
2019-01-30T03:13:33.716Z,1.16
2019-01-30T03:16:01.925Z,1.16
2019-01-30T03:18:30.106Z,1.17
2019-01-30T03:20:58.289Z,1.18
2019-01-30T03:23:26.469Z,1.18
2019-01-30T03:25:54.678Z,1.20
2019-01-30T03:28:22.865Z,1.19
2019-01-30T03:30:51.095Z,1.20
2019-01-30T03:33:19.241Z,1.22
2019-01-30T03:35:47.428Z,1.24
2019-01-30T03:38:15.609Z,1.26
2019-01-30T03:40:43.812Z,1.26
2019-01-30T03:43:11.997Z,1.29
2019-01-30T03:45:40.191Z,1.31
2019-01-30T03:48:08.372Z,1.31
2019-01-30T03:50:36.573Z,1.31
2019-01-30T03:53:04.756Z,1.31
2019-01-30T03:55:32.955Z,1.34
2019-01-30T03:58:01.141Z,1.34
2019-01-30T04:00:29.335Z,1.32
2019-01-30T04:02:57.517Z,1.31
2019-01-30T04:05:25.702Z,1.29
2019-01-30T04:07:53.892Z,1.33
2019-01-30T04:11:02.207Z,1.33
2019-01-30T04:13:30.393Z,1.33
2019-01-30T04:15:58.593Z,1.30
2019-01-30T04:18:26.769Z,1.31
2019-01-30T04:20:54.985Z,1.34
2019-01-30T04:23:23.177Z,1.38
2019-01-30T04:25:51.363Z,1.34
2019-01-30T04:28:19.551Z,1.31
2019-01-30T04:30:47.734Z,1.29
2019-01-30T04:33:15.926Z,1.29
2019-01-30T04:35:44.105Z,1.27
2019-01-30T04:38:12.310Z,1.25
2019-01-30T04:40:40.488Z,1.23
2019-01-30T04:43:08.679Z,1.24
2019-01-30T04:45:36.864Z,1.21
2019-01-30T04:48:05.058Z,1.19
2019-01-30T04:50:33.245Z,1.18
2019-01-30T04:53:01.447Z,1.16
2019-01-30T04:55:29.635Z,1.21
2019-01-30T04:57:58.279Z,1.24
2019-01-30T05:00:27.738Z,1.25
2019-01-30T05:02:55.941Z,1.28
2019-01-30T05:05:24.122Z,1.27
2019-01-30T05:07:52.323Z,1.25
2019-01-30T05:10:20.514Z,1.23
2019-01-30T05:12:48.726Z,1.20
2019-01-30T05:15:57.019Z,1.15
2019-01-30T05:18:25.212Z,1.13
2019-01-30T05:20:53.393Z,1.14
2019-01-30T05:23:21.590Z,1.12
2019-01-30T05:25:49.779Z,1.10
2019-01-30T05:28:17.980Z,1.07
2019-01-30T05:30:46.170Z,1.06
2019-01-30T05:33:14.369Z,1.07
2019-01-30T05:35:42.551Z,1.06
2019-01-30T05:38:10.746Z,1.02
2019-01-30T05:40:38.934Z,1.03
2019-01-30T05:43:07.132Z,1.05
2019-01-30T05:45:35.321Z,1.07
2019-01-30T05:48:03.502Z,1.09
2019-01-30T05:50:31.702Z,1.13
2019-01-30T05:52:59.888Z,1.14
2019-01-30T05:55:28.094Z,1.11
2019-01-30T05:57:56.276Z,1.11
2019-01-30T06:03:19.327Z,1.16
2019-01-30T06:05:47.522Z,1.18
2019-01-30T06:08:15.713Z,1.23
2019-01-30T06:10:43.909Z,1.29
2019-01-30T06:13:12.101Z,1.29
2019-01-30T06:15:40.293Z,1.28
2019-01-30T06:18:08.502Z,1.29
2019-01-30T06:20:36.672Z,1.28
2019-01-30T06:23:04.856Z,1.27
2019-01-30T06:25:33.066Z,1.22
2019-01-30T06:28:01.244Z,1.20
2019-01-30T06:30:29.441Z,1.23
2019-01-30T06:32:57.633Z,1.16
2019-01-30T06:35:25.834Z,1.14
2019-01-30T06:37:54.029Z,1.13
2019-01-30T06:41:02.337Z,1.13
2019-01-30T06:43:30.523Z,1.13
2019-01-30T06:45:58.725Z,1.16
2019-01-30T06:48:26.909Z,1.14
2019-01-30T06:50:55.114Z,1.23
2019-01-30T06:53:23.305Z,1.63
2019-01-30T06:55:51.497Z,1.94
2019-01-30T06:58:19.682Z,2.43
2019-01-30T07:00:47.887Z,2.65
2019-01-30T07:06:29.517Z,3.06
2019-01-30T07:08:57.706Z,2.60
2019-01-30T07:11:25.899Z,2.29
2019-01-30T07:13:54.078Z,2.09
2019-01-30T07:16:22.272Z,1.96
2019-01-30T07:18:50.457Z,1.88
2019-01-30T07:21:18.657Z,1.77
2019-01-30T07:23:46.850Z,1.74
2019-01-30T07:26:15.037Z,1.70
2019-01-30T07:28:43.220Z,1.69
2019-01-30T07:31:11.492Z,1.60
2019-01-30T07:33:39.663Z,1.55
2019-01-30T07:36:07.858Z,1.53
2019-01-30T07:38:36.055Z,1.54
2019-01-30T07:41:04.236Z,1.55
2019-01-30T07:43:32.449Z,1.59
2019-01-30T07:46:00.613Z,1.65
2019-01-30T07:48:29.154Z,1.71
2019-01-30T07:50:58.712Z,1.69
2019-01-30T07:53:26.902Z,1.65
2019-01-30T07:55:55.083Z,1.67
2019-01-30T07:58:23.281Z,1.66
2019-01-30T08:00:51.459Z,1.68
2019-01-30T08:03:19.655Z,1.72
2019-01-30T08:05:47.838Z,1.74
2019-01-30T08:08:16.033Z,1.72
2019-01-30T08:10:44.227Z,1.73
2019-01-30T08:13:12.421Z,1.72
2019-01-30T08:15:40.610Z,1.73
2019-01-30T08:18:08.808Z,1.76
2019-01-30T08:23:51.161Z,1.75
2019-01-30T08:26:19.412Z,1.75
2019-01-30T08:28:48.031Z,1.75
2019-01-30T08:31:17.638Z,1.77
2019-01-30T08:33:47.362Z,1.74
2019-01-30T08:36:15.551Z,1.75
2019-01-30T08:38:43.743Z,1.77
2019-01-30T08:41:11.922Z,1.78
2019-01-30T08:43:40.113Z,1.78
2019-01-30T08:46:08.302Z,1.78
2019-01-30T08:48:36.489Z,1.80
2019-01-30T08:51:04.672Z,1.83
2019-01-30T08:53:32.859Z,1.85
2019-01-30T08:56:01.047Z,1.87
2019-01-30T08:58:29.242Z,1.87
2019-01-30T09:00:57.418Z,1.91
2019-01-30T09:03:25.613Z,1.90
2019-01-30T09:05:53.799Z,1.94
2019-01-30T09:08:21.989Z,1.95
2019-01-30T09:10:50.171Z,1.97
2019-01-30T09:13:18.358Z,1.98
2019-01-30T09:15:46.547Z,1.98
2019-01-30T09:18:14.723Z,1.99
2019-01-30T09:20:42.915Z,2.02
2019-01-30T09:23:11.087Z,2.00
2019-01-30T09:25:39.277Z,2.00
2019-01-30T09:28:07.462Z,2.01
2019-01-30T09:31:15.783Z,2.03
2019-01-30T09:33:43.999Z,2.07
2019-01-30T09:36:12.162Z,2.14
2019-01-30T09:38:40.382Z,2.19
2019-01-30T09:41:08.561Z,2.19
2019-01-30T09:43:36.880Z,2.20
2019-01-30T09:46:05.141Z,2.22
2019-01-30T09:48:33.391Z,2.24
2019-01-30T09:51:01.533Z,2.26
2019-01-30T09:53:29.719Z,2.30
2019-01-30T09:55:57.913Z,2.32
2019-01-30T09:58:26.080Z,2.34
2019-01-30T10:00:54.272Z,2.37
2019-01-30T10:03:22.448Z,2.37
2019-01-30T10:05:50.640Z,2.39
2019-01-30T10:08:18.822Z,2.41
2019-01-30T10:10:47.014Z,2.40
2019-01-30T10:13:15.199Z,2.41
2019-01-30T10:16:23.503Z,2.42
2019-01-30T10:18:51.684Z,2.43
2019-01-30T10:21:59.995Z,2.50
2019-01-30T10:24:29.082Z,2.53
2019-01-30T10:26:58.102Z,2.58
2019-01-30T10:29:26.291Z,2.60
2019-01-30T10:31:54.482Z,2.63
2019-01-30T10:34:22.656Z,2.67
2019-01-30T10:36:50.849Z,2.73
2019-01-30T10:39:19.031Z,2.76
2019-01-30T10:41:47.221Z,2.78
2019-01-30T10:44:15.412Z,2.80
2019-01-30T10:46:43.601Z,2.83
2019-01-30T10:49:11.777Z,2.84
2019-01-30T10:51:39.971Z,2.88
2019-01-30T10:54:08.156Z,2.93
2019-01-30T10:56:36.347Z,2.91
2019-01-30T10:59:04.531Z,2.86
2019-01-30T11:01:32.720Z,2.89
2019-01-30T11:04:00.907Z,2.95
2019-01-30T11:06:29.097Z,3.04
2019-01-30T11:08:57.277Z,3.08
2019-01-30T11:11:25.462Z,3.13
2019-01-30T11:13:53.665Z,3.17
2019-01-30T11:16:21.859Z,3.19
2019-01-30T11:18:50.054Z,3.22
2019-01-30T11:21:18.235Z,3.24
2019-01-30T11:23:46.520Z,3.29
2019-01-30T11:26:14.690Z,3.34
2019-01-30T11:28:42.881Z,3.39
2019-01-30T11:31:11.064Z,3.43
2019-01-30T11:33:39.268Z,3.46
2019-01-30T11:36:07.450Z,3.52
2019-01-30T11:38:35.650Z,3.55
2019-01-30T11:41:03.834Z,3.59
2019-01-30T11:43:32.038Z,3.65
2019-01-30T11:46:07.147Z,3.69
2019-01-30T11:48:35.339Z,3.61
2019-01-30T11:51:03.521Z,3.57
2019-01-30T11:53:31.714Z,3.60
2019-01-30T11:55:59.898Z,3.64
2019-01-30T11:58:28.092Z,3.70
2019-01-30T12:03:45.146Z,3.79
2019-01-30T12:06:13.323Z,3.82
2019-01-30T12:08:41.518Z,3.83
2019-01-30T12:11:09.735Z,3.83
2019-01-30T12:13:37.929Z,3.84
2019-01-30T12:16:06.106Z,3.85
2019-01-30T12:18:34.296Z,3.84
2019-01-30T12:21:02.478Z,3.85
2019-01-30T12:23:30.672Z,3.84
2019-01-30T12:25:58.853Z,3.87
2019-01-30T12:28:27.030Z,3.86
2019-01-30T12:30:55.269Z,3.83
2019-01-30T12:33:23.444Z,3.86
2019-01-30T12:35:51.641Z,3.85
2019-01-30T12:38:19.825Z,3.87
2019-01-30T12:40:48.011Z,3.90
2019-01-30T12:43:16.188Z,3.87
2019-01-30T12:45:44.468Z,3.87
2019-01-30T12:48:12.648Z,3.91
2019-01-30T12:51:20.954Z,3.91
2019-01-30T12:53:49.138Z,3.93
2019-01-30T12:56:17.328Z,3.95
2019-01-30T12:58:45.511Z,4.01
2019-01-30T13:01:13.703Z,4.08
2019-01-30T13:03:41.882Z,4.15
2019-01-30T13:06:10.077Z,4.19
2019-01-30T13:08:38.253Z,4.25
2019-01-30T13:11:06.454Z,4.33
2019-01-30T13:13:34.629Z,4.38
2019-01-30T13:16:02.819Z,4.41
2019-01-30T13:18:30.998Z,4.40
2019-01-30T13:20:59.189Z,4.45
2019-01-30T13:23:27.370Z,4.42
2019-01-30T13:25:55.568Z,4.39
2019-01-30T13:28:23.746Z,4.37
2019-01-30T13:30:51.938Z,4.37
2019-01-30T13:33:20.122Z,4.40
2019-01-30T13:35:48.317Z,4.39
2019-01-30T13:38:16.497Z,4.41
2019-01-30T13:40:44.688Z,4.46
2019-01-30T13:43:12.865Z,4.48
2019-01-30T13:46:21.186Z,4.47
2019-01-30T13:48:49.363Z,4.46
2019-01-30T13:51:17.551Z,4.47
2019-01-30T13:53:45.747Z,4.49
2019-01-30T13:56:13.925Z,4.49
2019-01-30T13:58:42.768Z,4.49
2019-01-30T14:01:17.594Z,4.49
2019-01-30T14:03:41.949Z,4.50
2019-01-30T14:06:10.131Z,4.51
2019-01-30T14:08:38.325Z,4.49
2019-01-30T14:11:06.506Z,4.49
2019-01-30T14:13:34.672Z,4.48
2019-01-30T14:16:02.880Z,4.47
2019-01-30T14:18:31.092Z,4.45
2019-01-30T14:20:59.289Z,4.50
2019-01-30T14:23:27.431Z,4.48
2019-01-30T14:25:55.629Z,4.47
2019-01-30T14:28:23.810Z,4.49
2019-01-30T14:30:52.008Z,4.48
2019-01-30T14:33:20.407Z,4.44
2019-01-30T14:35:48.547Z,4.44
2019-01-30T14:38:16.780Z,4.44
2019-01-30T14:40:44.974Z,4.44
2019-01-30T14:43:13.114Z,4.41
2019-01-30T14:45:41.306Z,4.43
2019-01-30T14:48:09.484Z,4.42
2019-01-30T14:50:37.665Z,4.41
2019-01-30T14:53:05.901Z,4.40
2019-01-30T14:55:34.031Z,4.39
2019-01-30T14:58:02.268Z,4.39
2019-01-30T15:03:44.402Z,4.39
2019-01-30T15:06:12.597Z,4.35
2019-01-30T15:08:40.784Z,4.35
2019-01-30T15:11:08.992Z,4.33
2019-01-30T15:13:37.150Z,4.31
2019-01-30T15:16:05.373Z,4.27
2019-01-30T15:18:33.526Z,4.23
2019-01-30T15:21:01.744Z,4.19
2019-01-30T15:23:29.900Z,4.19
2019-01-30T15:25:58.086Z,4.16
2019-01-30T15:28:26.277Z,4.14
2019-01-30T15:30:54.450Z,4.14
2019-01-30T15:33:22.652Z,4.07
2019-01-30T15:35:50.828Z,4.03
2019-01-30T15:38:20.910Z,4.02
2019-01-30T15:40:48.916Z,3.98
2019-01-30T15:43:17.111Z,3.93
2019-01-30T15:45:45.290Z,3.90
2019-01-30T15:48:13.483Z,3.88
2019-01-30T15:51:21.778Z,3.89
2019-01-30T15:53:49.978Z,3.86
2019-01-30T15:56:18.158Z,3.83
2019-01-30T15:58:46.351Z,3.80
2019-01-30T16:01:14.643Z,3.78
2019-01-30T16:03:42.848Z,3.76
2019-01-30T16:06:11.029Z,3.75
2019-01-30T16:08:39.212Z,3.72
2019-01-30T16:11:07.395Z,3.69
2019-01-30T16:13:35.591Z,3.67
2019-01-30T16:19:18.064Z,3.62
2019-01-30T16:21:46.245Z,3.60
2019-01-30T16:24:14.446Z,3.63
2019-01-30T16:26:42.617Z,3.62
2019-01-30T16:29:10.812Z,3.59
2019-01-30T16:31:39.003Z,3.58
2019-01-30T16:34:07.249Z,3.57
2019-01-30T16:36:35.368Z,3.56
2019-01-30T16:41:57.953Z,3.54
2019-01-30T16:44:26.158Z,3.56
2019-01-30T16:46:54.341Z,3.55
2019-01-30T16:49:22.539Z,3.55
2019-01-30T16:51:50.725Z,3.54
2019-01-30T16:54:18.913Z,3.52
2019-01-30T16:56:47.100Z,3.51
2019-01-30T16:59:15.299Z,3.50
2019-01-30T17:01:43.488Z,3.51
2019-01-30T17:04:11.810Z,3.48
2019-01-30T17:06:39.952Z,3.51
2019-01-30T17:11:43.592Z,3.46
2019-01-30T17:14:11.784Z,3.47
2019-01-30T17:16:39.966Z,3.45
2019-01-30T17:19:08.151Z,3.44
2019-01-30T17:21:36.338Z,3.40
2019-01-30T17:24:04.521Z,3.40
2019-01-30T17:26:32.712Z,3.39
2019-01-30T17:29:00.893Z,3.40
2019-01-30T17:31:29.085Z,3.41
2019-01-30T17:33:57.265Z,3.41
2019-01-30T17:36:25.479Z,3.45
2019-01-30T17:38:53.664Z,3.39
2019-01-30T17:41:21.857Z,3.39
2019-01-30T17:43:50.044Z,3.39
2019-01-30T17:46:18.232Z,3.41
2019-01-30T17:48:48.794Z,3.42
2019-01-30T17:51:16.321Z,3.43
2019-01-30T17:53:44.509Z,3.45
2019-01-30T17:56:12.705Z,3.46
2019-01-30T17:58:40.896Z,3.47
2019-01-30T18:01:09.085Z,3.47
2019-01-30T18:03:37.267Z,3.48
2019-01-30T18:06:05.465Z,3.50
2019-01-30T18:08:33.645Z,3.50
2019-01-30T18:11:01.857Z,3.48
2019-01-30T18:16:38.029Z,3.36
2019-01-30T18:19:06.218Z,3.31
2019-01-30T18:21:34.414Z,3.37
2019-01-30T18:24:02.593Z,3.21
2019-01-30T18:26:30.790Z,3.04
2019-01-30T18:28:58.974Z,2.95
2019-01-30T18:31:27.169Z,2.88
2019-01-30T18:33:55.368Z,2.81
2019-01-30T18:36:23.561Z,2.77
2019-01-30T18:38:51.746Z,2.74
2019-01-30T18:41:39.315Z,2.70
2019-01-30T18:44:07.497Z,2.66
2019-01-30T18:46:54.794Z,2.62
2019-01-30T18:49:22.986Z,2.59
2019-01-30T18:51:51.261Z,2.54
2019-01-30T18:54:19.442Z,2.55
2019-01-30T18:56:47.638Z,2.55
2019-01-30T18:59:15.823Z,2.54
2019-01-30T19:01:44.024Z,2.55
2019-01-30T19:04:12.199Z,2.50
2019-01-30T19:06:51.678Z,2.46
2019-01-30T19:09:10.301Z,2.40
2019-01-30T19:11:38.514Z,2.35
2019-01-30T19:14:06.702Z,2.31
2019-01-30T19:16:34.890Z,2.28
2019-01-30T19:19:03.096Z,2.26
2019-01-30T19:21:31.278Z,2.25
2019-01-30T19:23:59.475Z,2.22
2019-01-30T19:26:27.658Z,2.22
2019-01-30T19:28:55.866Z,2.25
2019-01-30T19:31:24.052Z,2.26
2019-01-30T19:33:52.256Z,2.24
2019-01-30T19:36:20.438Z,2.24
2019-01-30T19:38:48.647Z,2.24
2019-01-30T19:41:16.835Z,2.27
2019-01-30T19:43:45.034Z,2.29
2019-01-30T19:46:13.232Z,2.31
2019-01-30T19:48:41.424Z,2.30
2019-01-30T19:51:09.631Z,2.31
2019-01-30T19:53:37.831Z,2.34
2019-01-30T19:56:06.014Z,2.36
2019-01-30T19:58:34.238Z,2.35
2019-01-30T20:01:21.545Z,2.35
2019-01-30T20:03:49.746Z,2.34
2019-01-30T20:06:17.936Z,2.38
2019-01-30T20:08:46.134Z,2.39
2019-01-30T20:11:14.325Z,2.41
2019-01-30T20:13:42.527Z,2.43
2019-01-30T20:16:10.723Z,2.45
2019-01-30T20:18:38.906Z,2.44
2019-01-30T20:21:07.126Z,2.44
2019-01-30T20:23:35.290Z,2.46
2019-01-30T20:26:03.506Z,2.48
2019-01-30T20:28:31.687Z,2.50
2019-01-30T20:31:01.294Z,2.50
2019-01-30T20:33:29.812Z,2.50
2019-01-30T20:35:58.017Z,2.51
2019-01-30T20:38:26.210Z,2.51
2019-01-30T20:40:54.407Z,2.54
2019-01-30T20:43:22.590Z,2.53
2019-01-30T20:45:50.796Z,2.53
2019-01-30T20:48:18.993Z,2.53
2019-01-30T20:50:47.191Z,2.56
2019-01-30T20:53:15.379Z,2.59
2019-01-30T20:55:43.585Z,2.59
2019-01-30T20:58:11.773Z,2.59
2019-01-30T21:00:39.970Z,2.60
2019-01-30T21:03:08.165Z,2.61
2019-01-30T21:05:36.364Z,2.64
2019-01-30T21:11:18.238Z,2.68
2019-01-30T21:13:46.421Z,2.68
2019-01-30T21:16:14.617Z,2.67
2019-01-30T21:18:42.801Z,2.69
2019-01-30T21:21:11.007Z,2.71
2019-01-30T21:23:39.205Z,2.75
2019-01-30T21:26:07.415Z,2.79
2019-01-30T21:28:35.598Z,2.79
2019-01-30T21:31:03.802Z,2.79
2019-01-30T21:33:31.986Z,2.80
2019-01-30T21:36:00.193Z,2.81
2019-01-30T21:38:28.385Z,2.85
2019-01-30T21:40:56.589Z,2.86
2019-01-30T21:43:24.852Z,2.87
2019-01-30T21:45:53.161Z,2.84
2019-01-30T21:48:21.316Z,2.81
2019-01-30T21:50:49.527Z,2.77
2019-01-30T21:53:17.714Z,2.73
2019-01-30T21:55:45.904Z,2.70
2019-01-30T21:58:14.098Z,2.68
2019-01-30T22:00:42.283Z,2.66
2019-01-30T22:03:10.482Z,2.65
2019-01-30T22:05:38.667Z,2.63
2019-01-30T22:08:06.869Z,2.63
2019-01-30T22:10:35.054Z,2.64
2019-01-30T22:13:03.263Z,2.64
2019-01-30T22:15:31.445Z,2.66
2019-01-30T22:17:59.646Z,2.68
2019-01-30T22:20:27.903Z,2.69
2019-01-30T22:22:56.108Z,2.72
2019-01-30T22:28:37.657Z,2.73
2019-01-30T22:31:05.848Z,2.74
2019-01-30T22:33:34.051Z,2.73
2019-01-30T22:36:02.248Z,2.75
2019-01-30T22:38:30.438Z,2.75
2019-01-30T22:40:58.623Z,2.77
2019-01-30T22:43:26.819Z,2.80
2019-01-30T22:45:55.013Z,2.82
2019-01-30T22:48:23.211Z,2.82
2019-01-30T22:50:51.399Z,2.82
2019-01-30T22:53:19.594Z,2.84
2019-01-30T22:55:47.781Z,2.87
2019-01-30T22:58:15.987Z,2.88
2019-01-30T23:04:37.099Z,2.87
2019-01-30T23:07:45.463Z,2.86
2019-01-30T23:17:07.843Z,2.88
2019-01-30T23:20:16.226Z,2.88
2019-01-30T23:23:23.227Z,2.88
2019-01-30T23:29:44.252Z,2.88
2019-01-30T23:32:51.242Z,2.84
2019-01-30T23:35:59.627Z,2.82
2019-01-30T23:39:06.625Z,2.81
2019-01-30T23:42:13.615Z,2.80
2019-01-30T23:45:22.038Z,2.80
2019-01-30T23:48:29.011Z,2.78
2019-01-30T23:54:37.222Z,2.81
2019-01-30T23:57:44.225Z,2.83
